createdAt,value
2023-11-26T00:01:25.327Z,4.63
2023-11-26T00:03:55.502Z,6.32
2023-11-26T00:06:26.009Z,5.43
2023-11-26T00:08:58.610Z,5.65
2023-11-26T00:11:28.577Z,5.00
2023-11-26T00:13:56.037Z,5.47
2023-11-26T00:16:26.837Z,5.65
2023-11-26T00:18:56.840Z,6.13
2023-11-26T00:21:26.912Z,6.45
2023-11-26T00:23:59.562Z,5.93
2023-11-26T00:26:29.836Z,5.80
2023-11-26T00:29:05.014Z,5.75
2023-11-26T00:31:35.426Z,5.63
2023-11-26T00:34:06.242Z,5.88
2023-11-26T00:36:36.506Z,6.15
2023-11-26T00:39:10.415Z,5.53
2023-11-26T00:41:42.007Z,6.00
2023-11-26T00:44:12.092Z,5.95
2023-11-26T00:46:42.143Z,6.15
2023-11-26T00:49:12.102Z,6.88
2023-11-26T00:51:42.931Z,7.28
2023-11-26T00:54:15.566Z,7.38
2023-11-26T00:56:45.732Z,7.47
2023-11-26T00:59:16.360Z,9.35
2023-11-26T01:01:46.484Z,8.38
2023-11-26T01:04:16.608Z,8.90
2023-11-26T01:06:46.557Z,8.38
2023-11-26T01:09:19.681Z,9.43
2023-11-26T01:11:49.709Z,8.27
2023-11-26T01:14:20.154Z,9.05
2023-11-26T01:16:51.656Z,8.25
2023-11-26T01:19:22.232Z,8.27
2023-11-26T01:21:52.744Z,8.52
2023-11-26T01:24:26.466Z,8.40
2023-11-26T01:26:56.412Z,8.88
2023-11-26T01:29:26.387Z,7.20
2023-11-26T01:31:57.996Z,7.68
2023-11-26T01:34:28.135Z,8.43
2023-11-26T01:36:59.187Z,7.38
2023-11-26T01:39:31.764Z,8.30
2023-11-26T01:42:01.804Z,8.80
2023-11-26T01:44:31.929Z,8.55
2023-11-26T01:47:07.321Z,8.60
2023-11-26T01:49:39.111Z,8.48
2023-11-26T01:52:14.728Z,8.40
2023-11-26T01:54:47.829Z,8.55
2023-11-26T01:57:21.100Z,7.85
2023-11-26T01:59:51.115Z,7.30
2023-11-26T02:02:21.185Z,7.53
2023-11-26T02:04:51.289Z,8.27
2023-11-26T02:07:21.432Z,8.02
2023-11-26T02:09:54.340Z,6.40
2023-11-26T02:12:24.499Z,6.25
2023-11-26T02:14:54.500Z,7.05
2023-11-26T02:17:24.485Z,6.80
2023-11-26T02:19:56.943Z,6.75
2023-11-26T02:22:26.957Z,6.70
2023-11-26T02:24:59.521Z,6.90
2023-11-26T02:27:30.116Z,6.38
2023-11-26T02:30:00.119Z,6.47
2023-11-26T02:32:30.186Z,6.55
2023-11-26T02:35:00.431Z,7.03
2023-11-26T02:37:30.467Z,7.53
2023-11-26T02:40:06.570Z,7.05
2023-11-26T02:42:36.658Z,7.13
2023-11-26T02:45:07.209Z,6.65
2023-11-26T02:47:38.143Z,6.32
2023-11-26T02:50:10.115Z,6.32
2023-11-26T02:52:40.187Z,5.35
2023-11-26T02:55:13.278Z,5.15
2023-11-26T02:57:43.245Z,5.63
2023-11-26T03:00:21.716Z,4.75
2023-11-26T03:02:52.689Z,4.95
2023-11-26T03:05:23.378Z,4.22
2023-11-26T03:08:05.033Z,4.53
2023-11-26T03:10:52.963Z,4.40
2023-11-26T03:13:24.671Z,3.95
2023-11-26T03:15:55.346Z,4.22
2023-11-26T03:18:26.060Z,3.65
2023-11-26T03:20:57.341Z,3.38
2023-11-26T03:23:27.467Z,3.90
2023-11-26T03:26:00.172Z,3.58
2023-11-26T03:28:30.787Z,5.35
2023-11-26T03:31:00.734Z,4.60
2023-11-26T03:33:31.028Z,5.13
2023-11-26T03:36:01.179Z,4.30
2023-11-26T03:38:32.000Z,3.85
2023-11-26T03:41:05.160Z,4.63
2023-11-26T03:43:35.292Z,4.18
2023-11-26T03:46:05.744Z,4.32
2023-11-26T03:48:35.763Z,4.82
2023-11-26T03:51:05.847Z,4.97
2023-11-26T03:53:35.794Z,4.45
2023-11-26T03:56:09.541Z,4.35
2023-11-26T03:58:39.674Z,3.95
2023-11-26T04:01:13.632Z,3.80
2023-11-26T04:03:44.990Z,4.07
2023-11-26T04:06:15.287Z,4.00
2023-11-26T04:08:45.535Z,3.30
2023-11-26T04:11:18.220Z,4.22
2023-11-26T04:13:48.451Z,3.92
2023-11-26T04:16:20.123Z,3.47
2023-11-26T04:18:51.156Z,3.60
2023-11-26T04:21:21.204Z,3.47
2023-11-26T04:23:51.168Z,3.35
2023-11-26T04:26:27.534Z,2.80
2023-11-26T04:29:02.697Z,2.83
2023-11-26T04:31:32.859Z,3.00
2023-11-26T04:34:02.182Z,2.75
2023-11-26T04:36:32.561Z,2.63
2023-11-26T04:39:02.667Z,3.05
2023-11-26T04:41:35.173Z,2.97
2023-11-26T04:44:05.150Z,2.80
2023-11-26T04:46:35.449Z,2.97
2023-11-26T04:49:05.413Z,2.97
2023-11-26T04:51:39.719Z,2.75
2023-11-26T04:54:13.158Z,2.78
2023-11-26T04:56:46.022Z,2.67
2023-11-26T04:59:16.065Z,2.83
2023-11-26T05:01:50.250Z,3.10
2023-11-26T05:04:21.168Z,2.75
2023-11-26T05:06:51.213Z,3.00
2023-11-26T05:09:22.137Z,3.20
2023-11-26T05:11:54.745Z,2.92
2023-11-26T05:14:24.806Z,3.08
2023-11-26T05:16:54.922Z,3.03
2023-11-26T05:19:25.126Z,2.88
2023-11-26T05:21:55.080Z,2.45
2023-11-26T05:24:25.066Z,2.92
2023-11-26T05:26:57.611Z,2.83
2023-11-26T05:29:28.772Z,1.98
2023-11-26T05:31:58.802Z,2.83
2023-11-26T05:34:28.750Z,2.03
2023-11-26T05:36:58.823Z,2.03
2023-11-26T05:39:28.860Z,1.60
2023-11-26T05:42:01.379Z,1.77
2023-11-26T05:44:31.371Z,1.63
2023-11-26T05:47:01.425Z,1.52
2023-11-26T05:49:31.647Z,1.50
2023-11-26T05:52:02.110Z,2.22
2023-11-26T05:54:32.175Z,1.58
2023-11-26T05:57:05.036Z,1.52
2023-11-26T05:59:35.019Z,3.08
2023-11-26T06:02:04.989Z,1.48
2023-11-26T06:04:34.916Z,1.50
2023-11-26T06:07:05.057Z,1.42
2023-11-26T06:09:35.055Z,1.50
2023-11-26T06:12:08.401Z,1.23
2023-11-26T06:14:38.440Z,0.98
2023-11-26T06:17:08.421Z,1.40
2023-11-26T06:19:40.683Z,1.48
2023-11-26T06:22:10.659Z,1.40
2023-11-26T06:24:40.781Z,1.23
2023-11-26T06:27:13.432Z,1.30
2023-11-26T06:29:43.858Z,1.88
2023-11-26T06:32:13.854Z,1.42
2023-11-26T06:34:43.845Z,1.33
2023-11-26T06:37:13.749Z,1.25
2023-11-26T06:39:45.819Z,1.20
2023-11-26T06:42:20.175Z,1.42
2023-11-26T06:44:51.382Z,1.10
2023-11-26T06:47:21.597Z,1.92
2023-11-26T06:49:51.603Z,1.73
2023-11-26T06:52:21.636Z,1.83
2023-11-26T06:54:51.557Z,1.60
2023-11-26T06:57:24.247Z,2.30
2023-11-26T06:59:54.230Z,2.97
2023-11-26T07:02:24.334Z,2.80
2023-11-26T07:04:54.528Z,2.45
2023-11-26T07:07:24.969Z,2.72
2023-11-26T07:09:55.043Z,2.42
2023-11-26T07:12:30.774Z,2.25
2023-11-26T07:15:02.411Z,2.78
2023-11-26T07:17:32.510Z,1.90
2023-11-26T07:20:02.580Z,2.17
2023-11-26T07:22:32.480Z,2.15
2023-11-26T07:25:02.670Z,2.58
2023-11-26T07:27:35.354Z,3.00
2023-11-26T07:30:06.230Z,3.47
2023-11-26T07:32:36.490Z,3.95
2023-11-26T07:35:06.888Z,3.63
2023-11-26T07:37:37.065Z,4.65
2023-11-26T07:40:08.962Z,4.43
2023-11-26T07:42:42.787Z,4.90
2023-11-26T07:45:13.739Z,4.68
2023-11-26T07:47:43.732Z,4.32
2023-11-26T07:50:13.707Z,4.28
2023-11-26T07:52:43.823Z,4.35
2023-11-26T07:55:13.987Z,4.40
2023-11-26T07:57:46.873Z,5.30
2023-11-26T08:00:19.031Z,5.63
2023-11-26T08:02:49.074Z,5.80
2023-11-26T08:05:20.352Z,5.38
2023-11-26T08:07:52.789Z,5.72
2023-11-26T08:10:27.995Z,6.18
2023-11-26T08:13:00.776Z,5.47
2023-11-26T08:15:30.878Z,5.80
2023-11-26T08:18:00.884Z,5.78
2023-11-26T08:20:30.949Z,6.00
2023-11-26T08:23:02.893Z,6.40
2023-11-26T08:25:35.224Z,6.47
2023-11-26T08:28:08.699Z,6.55
2023-11-26T08:30:45.556Z,6.65
2023-11-26T08:33:18.522Z,7.07
2023-11-26T08:35:52.325Z,7.75
2023-11-26T08:38:24.945Z,7.07
2023-11-26T08:40:56.008Z,7.85
2023-11-26T08:43:28.525Z,8.15
2023-11-26T08:46:02.481Z,8.23
2023-11-26T08:48:32.837Z,7.32
2023-11-26T08:51:02.778Z,7.45
2023-11-26T08:53:34.281Z,8.35
2023-11-26T08:56:04.569Z,6.80
2023-11-26T08:58:37.331Z,7.40
2023-11-26T09:01:07.462Z,7.57
2023-11-26T09:03:38.531Z,7.05
2023-11-26T09:06:09.331Z,7.07
2023-11-26T09:08:39.296Z,7.05
2023-11-26T09:11:09.520Z,7.70
2023-11-26T09:13:42.049Z,6.95
2023-11-26T09:16:12.470Z,8.20
2023-11-26T09:18:43.145Z,7.70
2023-11-26T09:21:14.035Z,6.85
2023-11-26T09:23:46.799Z,8.25
2023-11-26T09:26:17.075Z,8.20
2023-11-26T09:28:56.618Z,8.05
2023-11-26T09:31:28.973Z,7.20
2023-11-26T09:34:00.708Z,7.07
2023-11-26T09:36:30.722Z,6.90
2023-11-26T09:39:01.016Z,7.53
2023-11-26T09:41:31.443Z,6.03
2023-11-26T09:44:04.413Z,7.00
2023-11-26T09:46:36.511Z,7.20
2023-11-26T09:49:06.924Z,6.28
2023-11-26T09:51:39.586Z,6.30
2023-11-26T09:54:11.335Z,6.25
2023-11-26T09:56:41.844Z,5.75
2023-11-26T09:59:27.813Z,6.25
2023-11-26T10:01:59.520Z,4.80
2023-11-26T10:04:29.815Z,4.82
2023-11-26T10:07:00.002Z,5.32
2023-11-26T10:09:29.987Z,5.28
2023-11-26T10:12:02.245Z,5.75
2023-11-26T10:14:34.803Z,5.70
2023-11-26T10:17:13.182Z,5.63
2023-11-26T10:19:44.119Z,6.38
2023-11-26T10:22:14.100Z,7.07
2023-11-26T10:24:44.067Z,5.70
2023-11-26T10:27:17.340Z,5.95
2023-11-26T10:29:49.928Z,5.75
2023-11-26T10:32:19.935Z,6.20
2023-11-26T10:34:58.915Z,5.82
2023-11-26T10:37:29.212Z,5.72
2023-11-26T10:39:59.777Z,5.22
2023-11-26T10:42:33.214Z,7.05
2023-11-26T10:45:08.397Z,7.03
2023-11-26T10:47:42.955Z,10.88
2023-11-26T10:50:15.055Z,7.68
2023-11-26T10:52:49.911Z,5.82
2023-11-26T10:55:25.428Z,6.35
2023-11-26T10:57:58.730Z,5.25
2023-11-26T11:00:34.137Z,5.95
2023-11-26T11:03:06.611Z,5.00
2023-11-26T11:05:36.972Z,5.97
2023-11-26T11:08:08.054Z,5.18
2023-11-26T11:10:46.178Z,4.20
2023-11-26T11:13:20.614Z,4.25
2023-11-26T11:15:53.779Z,4.03
2023-11-26T11:18:42.094Z,4.22
2023-11-26T11:21:14.116Z,4.57
2023-11-26T11:23:46.363Z,3.67
2023-11-26T11:26:17.745Z,3.85
2023-11-26T11:28:49.344Z,4.22
2023-11-26T11:31:23.425Z,4.13
2023-11-26T11:34:21.864Z,4.57
2023-11-26T11:36:56.816Z,4.20
2023-11-26T11:39:31.120Z,4.60
2023-11-26T11:42:21.987Z,3.45
2023-11-26T11:44:53.051Z,3.90
2023-11-26T11:47:47.265Z,3.63
2023-11-26T11:50:17.913Z,3.43
2023-11-26T11:52:56.985Z,4.18
2023-11-26T11:55:38.176Z,3.50
2023-11-26T11:58:18.026Z,3.65
2023-11-26T12:00:49.659Z,3.42
2023-11-26T12:03:22.685Z,3.55
2023-11-26T12:05:52.924Z,3.33
2023-11-26T12:08:23.379Z,3.10
2023-11-26T12:10:53.846Z,2.72
2023-11-26T12:13:24.030Z,3.28
2023-11-26T12:15:59.079Z,2.75
2023-11-26T12:18:32.042Z,3.40
2023-11-26T12:21:02.257Z,2.85
2023-11-26T12:23:37.470Z,3.05
2023-11-26T12:26:08.843Z,2.97
2023-11-26T12:28:45.913Z,2.53
2023-11-26T12:31:17.127Z,3.40
2023-11-26T12:33:50.002Z,2.50
2023-11-26T12:36:20.282Z,2.95
2023-11-26T12:38:50.359Z,2.75
2023-11-26T12:41:20.482Z,3.17
2023-11-26T12:43:51.172Z,2.65
2023-11-26T12:46:22.791Z,3.72
2023-11-26T12:48:56.340Z,2.70
2023-11-26T12:51:26.659Z,2.97
2023-11-26T12:53:56.800Z,2.88
2023-11-26T12:56:26.842Z,2.70
2023-11-26T12:59:03.946Z,2.95
2023-11-26T13:01:36.341Z,2.78
2023-11-26T13:04:10.122Z,2.88
2023-11-26T13:06:56.751Z,2.28
2023-11-26T13:09:27.302Z,2.00
2023-11-26T13:12:06.124Z,2.85
2023-11-26T13:14:42.731Z,2.38
2023-11-26T13:17:14.321Z,3.47
2023-11-26T13:19:48.624Z,3.35
2023-11-26T13:22:18.816Z,3.58
2023-11-26T13:24:48.766Z,3.63
2023-11-26T13:27:18.842Z,3.50
2023-11-26T13:29:48.759Z,3.95
2023-11-26T13:32:18.683Z,3.60
2023-11-26T13:34:52.048Z,3.72
2023-11-26T13:37:22.048Z,4.30
2023-11-26T13:39:51.988Z,5.25
2023-11-26T13:42:21.948Z,3.83
2023-11-26T13:44:51.960Z,3.47
2023-11-26T13:47:22.091Z,4.57
2023-11-26T13:49:54.622Z,4.43
2023-11-26T13:52:25.299Z,3.20
2023-11-26T13:54:55.272Z,3.72
2023-11-26T13:57:25.306Z,3.67
2023-11-26T13:59:56.455Z,3.72
2023-11-26T14:02:28.687Z,3.63
2023-11-26T14:05:03.042Z,3.72
2023-11-26T14:07:30.492Z,3.10
2023-11-26T14:10:02.076Z,3.45
2023-11-26T14:12:32.110Z,3.03
2023-11-26T14:15:02.049Z,3.28
2023-11-26T14:17:32.230Z,3.67
2023-11-26T14:20:05.735Z,3.03
2023-11-26T14:22:35.704Z,3.22
2023-11-26T14:25:05.706Z,3.33
2023-11-26T14:27:36.098Z,3.38
2023-11-26T14:30:06.790Z,3.30
2023-11-26T14:32:36.885Z,3.22
2023-11-26T14:35:10.547Z,3.65
2023-11-26T14:37:40.986Z,3.20
2023-11-26T14:40:11.351Z,3.20
2023-11-26T14:42:41.709Z,3.78
2023-11-26T14:45:13.034Z,3.00
2023-11-26T14:47:46.660Z,3.08
2023-11-26T14:50:19.901Z,3.28
2023-11-26T14:52:51.256Z,3.53
2023-11-26T14:55:21.175Z,3.20
2023-11-26T14:57:51.159Z,3.78
2023-11-26T15:00:23.330Z,3.22
2023-11-26T15:02:53.434Z,2.97
2023-11-26T15:05:26.178Z,2.90
2023-11-26T15:07:56.224Z,3.05
2023-11-26T15:10:26.135Z,3.30
2023-11-26T15:12:56.235Z,3.83
2023-11-26T15:15:26.273Z,3.60
2023-11-26T15:17:56.261Z,4.15
2023-11-26T15:20:29.021Z,3.63
2023-11-26T15:22:59.048Z,4.50
2023-11-26T15:25:28.960Z,3.28
2023-11-26T15:27:58.982Z,3.67
2023-11-26T15:30:29.011Z,3.22
2023-11-26T15:32:59.024Z,3.33
2023-11-26T15:35:31.698Z,3.83
2023-11-26T15:38:03.138Z,4.13
2023-11-26T15:40:33.529Z,3.83
2023-11-26T15:43:05.961Z,3.78
2023-11-26T15:45:36.012Z,4.78
2023-11-26T15:48:06.240Z,3.88
2023-11-26T15:50:38.750Z,3.85
2023-11-26T15:53:08.722Z,4.70
2023-11-26T15:55:39.999Z,4.22
2023-11-26T15:58:10.031Z,4.05
2023-11-26T16:00:41.817Z,4.30
2023-11-26T16:03:12.240Z,4.03
2023-11-26T16:05:44.943Z,4.55
2023-11-26T16:08:14.960Z,4.38
2023-11-26T16:10:45.354Z,3.83
2023-11-26T16:13:15.840Z,4.47
2023-11-26T16:15:45.810Z,4.13
2023-11-26T16:18:15.899Z,4.20
2023-11-26T16:20:49.205Z,4.75
2023-11-26T16:23:19.454Z,4.53
2023-11-26T16:25:49.493Z,4.70
2023-11-26T16:28:19.411Z,5.00
2023-11-26T16:30:49.442Z,5.28
2023-11-26T16:33:19.481Z,4.70
2023-11-26T16:35:52.042Z,4.28
2023-11-26T16:38:23.027Z,4.53
2023-11-26T16:40:53.093Z,4.20
2023-11-26T16:43:23.087Z,4.97
2023-11-26T16:45:53.147Z,4.93
2023-11-26T16:48:23.207Z,5.00
2023-11-26T16:50:55.704Z,5.50
2023-11-26T16:53:25.689Z,4.75
2023-11-26T16:55:55.646Z,4.72
2023-11-26T16:58:25.576Z,3.97
2023-11-26T17:00:56.797Z,3.38
2023-11-26T17:03:27.634Z,2.90
2023-11-26T17:06:00.435Z,3.38
2023-11-26T17:08:30.991Z,3.40
2023-11-26T17:11:01.575Z,3.47
2023-11-26T17:13:31.939Z,3.45
2023-11-26T17:16:02.042Z,3.88
2023-11-26T17:18:33.249Z,4.47
2023-11-26T17:21:06.100Z,3.90
2023-11-26T17:23:36.092Z,3.80
2023-11-26T17:26:06.245Z,4.20
2023-11-26T17:28:36.293Z,4.20
2023-11-26T17:31:06.449Z,4.10
2023-11-26T17:33:36.430Z,3.70
2023-11-26T17:36:10.913Z,3.22
2023-11-26T17:41:11.463Z,3.55
2023-11-26T17:43:41.584Z,4.07
2023-11-26T17:46:12.599Z,5.53
2023-11-26T17:48:42.846Z,4.20
2023-11-26T17:51:16.785Z,4.72
2023-11-26T17:53:46.840Z,4.70
2023-11-26T17:56:16.937Z,5.68
2023-11-26T17:58:46.981Z,7.65
2023-11-26T18:01:17.377Z,5.55
2023-11-26T18:03:48.581Z,4.47
2023-11-26T18:06:21.256Z,4.97
2023-11-26T18:08:53.882Z,4.53
2023-11-26T18:11:25.336Z,5.88
2023-11-26T18:13:57.701Z,5.55
2023-11-26T18:16:27.745Z,4.90
2023-11-26T18:18:57.870Z,5.10
2023-11-26T18:21:31.337Z,5.43
2023-11-26T18:24:01.344Z,5.63
2023-11-26T18:26:31.282Z,7.05
2023-11-26T18:29:03.774Z,7.18
2023-11-26T18:31:34.494Z,6.22
2023-11-26T18:34:04.919Z,6.50
2023-11-26T18:36:37.517Z,5.65
2023-11-26T18:39:07.668Z,5.50
2023-11-26T18:41:37.666Z,5.63
2023-11-26T18:44:09.252Z,5.15
2023-11-26T18:46:40.715Z,5.03
2023-11-26T18:49:11.054Z,5.53
2023-11-26T18:51:47.673Z,5.38
2023-11-26T18:54:17.915Z,4.40
2023-11-26T18:56:48.994Z,4.90
2023-11-26T18:59:20.880Z,5.10
2023-11-26T19:01:52.983Z,4.90
2023-11-26T19:04:23.449Z,4.30
2023-11-26T19:06:56.615Z,5.07
2023-11-26T19:09:27.005Z,5.38
2023-11-26T19:11:57.106Z,5.68
2023-11-26T19:14:27.083Z,5.38
2023-11-26T19:16:57.463Z,5.80
2023-11-26T19:19:27.532Z,6.30
2023-11-26T19:22:00.169Z,6.78
2023-11-26T19:24:30.273Z,6.65
2023-11-26T19:27:00.232Z,5.85
2023-11-26T19:29:30.263Z,6.05
2023-11-26T19:32:00.223Z,5.88
2023-11-26T19:34:30.369Z,5.13
2023-11-26T19:37:03.947Z,5.45
2023-11-26T19:39:34.289Z,4.75
2023-11-26T19:42:04.292Z,4.95
2023-11-26T19:44:34.246Z,4.88
2023-11-26T19:47:04.301Z,5.53
2023-11-26T19:49:34.478Z,5.20
2023-11-26T19:52:09.382Z,6.13
2023-11-26T19:54:40.556Z,4.57
2023-11-26T19:57:11.173Z,5.40
2023-11-26T19:59:41.274Z,5.82
2023-11-26T20:02:11.316Z,5.60
2023-11-26T20:04:41.401Z,5.25
2023-11-26T20:07:13.994Z,5.30
2023-11-26T20:09:44.433Z,5.30
2023-11-26T20:12:14.402Z,5.53
2023-11-26T20:14:46.272Z,5.30
2023-11-26T20:17:18.116Z,5.22
2023-11-26T20:19:48.192Z,5.15
2023-11-26T20:22:20.802Z,5.55
2023-11-26T20:24:50.857Z,4.82
2023-11-26T20:27:21.020Z,5.35
2023-11-26T20:29:50.999Z,4.88
2023-11-26T20:32:21.480Z,5.30
2023-11-26T20:34:51.516Z,5.78
2023-11-26T20:37:24.167Z,5.50
2023-11-26T20:39:54.199Z,4.88
2023-11-26T20:42:24.187Z,4.97
2023-11-26T20:44:54.704Z,5.68
2023-11-26T20:47:24.693Z,5.03
2023-11-26T20:49:54.996Z,5.88
2023-11-26T20:52:27.600Z,5.25
2023-11-26T20:54:57.671Z,4.95
2023-11-26T20:57:28.205Z,4.93
2023-11-26T20:59:58.172Z,5.20
2023-11-26T21:02:28.300Z,4.80
2023-11-26T21:04:58.331Z,4.72
2023-11-26T21:07:30.974Z,4.88
2023-11-26T21:10:02.052Z,4.50
2023-11-26T21:12:33.512Z,4.60
2023-11-26T21:15:05.360Z,4.43
2023-11-26T21:17:39.112Z,4.60
2023-11-26T21:20:12.655Z,5.20
2023-11-26T21:22:45.486Z,5.88
2023-11-26T21:25:15.497Z,5.10
2023-11-26T21:27:45.584Z,4.80
2023-11-26T21:30:16.411Z,5.07
2023-11-26T21:32:47.913Z,5.60
2023-11-26T21:35:18.465Z,5.75
2023-11-26T21:37:51.095Z,5.47
2023-11-26T21:40:21.095Z,5.45
2023-11-26T21:42:51.223Z,5.30
2023-11-26T21:45:21.299Z,5.03
2023-11-26T21:47:51.513Z,5.10
2023-11-26T21:50:21.824Z,5.50
2023-11-26T21:52:54.335Z,5.30
2023-11-26T21:55:24.387Z,5.82
2023-11-26T21:57:54.342Z,4.97
2023-11-26T22:00:24.587Z,5.72
2023-11-26T22:02:54.606Z,5.53
2023-11-26T22:05:24.626Z,5.25
2023-11-26T22:07:57.204Z,5.00
2023-11-26T22:10:27.269Z,5.55
2023-11-26T22:12:58.083Z,5.07
2023-11-26T22:15:28.152Z,5.45
2023-11-26T22:17:58.183Z,5.45
2023-11-26T22:20:28.139Z,6.75
2023-11-26T22:23:01.028Z,6.13
2023-11-26T22:25:31.413Z,6.53
2023-11-26T22:28:01.506Z,5.97
2023-11-26T22:30:31.511Z,5.68
2023-11-26T22:33:02.243Z,5.85
2023-11-26T22:35:32.319Z,5.38
2023-11-26T22:38:08.783Z,5.60
2023-11-26T22:40:40.163Z,5.28
2023-11-26T22:43:10.133Z,5.93
2023-11-26T22:45:40.379Z,5.50
2023-11-26T22:48:10.447Z,5.82
2023-11-26T22:50:50.897Z,5.80
2023-11-26T22:53:25.096Z,5.50
2023-11-26T22:55:55.055Z,5.53
2023-11-26T22:58:25.014Z,5.82
2023-11-26T23:00:55.024Z,5.47
2023-11-26T23:03:25.062Z,6.22
2023-11-26T23:05:55.177Z,6.40
2023-11-26T23:08:28.988Z,6.80
2023-11-26T23:10:58.967Z,5.50
2023-11-26T23:13:31.717Z,5.95
2023-11-26T23:16:02.057Z,4.90
2023-11-26T23:21:04.535Z,5.25
2023-11-26T23:23:46.990Z,6.03
2023-11-26T23:26:22.592Z,5.15
2023-11-26T23:28:52.810Z,5.75
2023-11-26T23:31:24.333Z,5.30
2023-11-26T23:33:54.408Z,4.88
2023-11-26T23:36:24.386Z,5.00
2023-11-26T23:38:56.896Z,3.78
2023-11-26T23:41:26.876Z,4.60
2023-11-26T23:43:56.804Z,4.80
2023-11-26T23:46:26.887Z,4.32
2023-11-26T23:48:56.913Z,4.85
2023-11-26T23:51:26.982Z,4.38
2023-11-26T23:53:59.527Z,5.03
2023-11-26T23:56:29.474Z,5.07
2023-11-26T23:58:59.489Z,4.18
